SLRI/RIB METAR and TAF weather

Enter ICAO airport designator
Station Type Date Time Source
SLRI METAR 2018/12/12 23:00 UTC NOAA

SLRI 122300Z 35006KT 8000 VCSH SCT017 FEW020CB BKN200 26/24 Q1011


Station Type Date Time Source
SLRI Decoded METAR 2018/12/12 23:00 UTC NOAA

Riberalta, Bolivia (SLRI) 11-00S 066-07W
Dec 12, 2018 - 06:00 PM EST / 2018.12.12 2300 UTC
Wind: from the N (350 degrees) at 7 MPH (6 KT):0
Visibility: 4 mile(s):0
Sky conditions: mostly cloudy
Weather: showers in the vicinity; Cumulonimbus clouds observed
Temperature: 78 F (26 C)
Dew Point: 75 F (24 C)
Relative Humidity: 88%
Pressure (altimeter): 29.85 in. Hg (1011 hPa)
ob: SLRI 122300Z 35006KT 8000 VCSH SCT017 FEW020CB BKN200 26/24 Q1011
cycle: 23

Station Type Date Time Source
SLRI TAF 2015/11/18 00:29 UTC NOAA

TAF SLRI 182200Z 1900/1924 00000KT 9999 FEW015 TX37/1919Z TN23/1910Z
BECMG 1912/1914 33011KT SCT020
TEMPO 1919/1922 8000 VCSH FEW020 FEW023CB BKN080


Example: see airport list